Terminal Aerodrome Forecast
Issued by NWS

Home | Current Version | Previous Version | Text Only | Print | Product List | Glossary On
Versions: 1 2 3 4 5 6 7 8 9 10 11 12 13 14 15
000
FTUS46 KOTX 251316 AAA
TAFMWH
TAF AMD
KMWH 251316Z 2513/2612 35010KT 6SM BR BKN250
      TEMPO 2513/2517 3SM BR FEW005
     FM251900 17008KT P6SM VCSH BKN080 BKN100
     FM260200 20015G25KT P6SM -SHRA SCT030 BKN060
     FM260700 21020G30KT P6SM BKN250=

USA.gov is the U.S. government's official web portal to all federal, state and local government web resources and services.